Time;durP1;ratioP1;P1;durP2;ratioP2;P2;SDS_P1;SDS_P2;PMS_P1;PMS_P2;Temp;Humidity;BMP_temperature;BMP_pressure;BME280_temperature;BME280_humidity;BME280_pressure;Samples;Min_cycle;Max_cycle;Signal;HPM_P1;HPM_P2
2021/08/27 00:01:03;;;;;;;13.52;4.38;;;;;;;13.32;94.30;98385.69;5046045;28;20013;-90
2021/08/27 00:03:29;;;;;;;9.68;4.25;;;;;;;13.17;94.52;98382.69;5042432;28;20034;-90
2021/08/27 00:05:54;;;;;;;8.43;4.18;;;;;;;13.16;94.64;98392.38;5042725;28;20343;-90
2021/08/27 00:08:20;;;;;;;14.55;4.57;;;;;;;13.20;94.46;98387.88;5042723;28;20075;-90
2021/08/27 00:10:45;;;;;;;12.63;4.45;;;;;;;13.16;94.41;98380.97;5042085;28;20092;-90
2021/08/27 00:13:11;;;;;;;12.85;3.95;;;;;;;13.24;94.45;98394.78;5042482;28;20040;-90
2021/08/27 00:15:37;;;;;;;11.95;4.20;;;;;;;13.16;94.62;98381.81;5042519;28;20025;-90
2021/08/27 00:18:03;;;;;;;13.43;4.30;;;;;;;13.10;94.93;98381.19;5042546;28;20324;-90
2021/08/27 00:20:29;;;;;;;12.00;4.18;;;;;;;13.06;95.72;98384.84;5042931;28;20024;-90
2021/08/27 00:22:54;;;;;;;11.95;4.57;;;;;;;13.03;95.46;98376.09;5042434;28;20021;-90
2021/08/27 00:25:20;;;;;;;16.17;4.95;;;;;;;13.05;95.82;98378.69;5042476;28;20029;-90
2021/08/27 00:27:45;;;;;;;12.57;4.80;;;;;;;13.09;95.88;98384.75;5043577;28;20030;-90
2021/08/27 00:30:11;;;;;;;12.70;4.55;;;;;;;12.97;95.72;98380.66;5042421;28;20028;-90
2021/08/27 00:32:37;;;;;;;13.93;4.45;;;;;;;13.04;95.72;98385.75;5042449;28;20022;-90
2021/08/27 00:35:04;;;;;;;13.48;4.72;;;;;;;13.07;95.78;98390.09;5042685;28;20022;-90
2021/08/27 00:37:33;;;;;;;15.18;5.28;;;;;;;13.12;95.99;98390.78;5042531;28;20022;-90
2021/08/27 00:39:59;;;;;;;12.05;3.50;;;;;;;13.22;95.54;98396.63;5043592;28;20051;-90
2021/08/27 00:42:24;;;;;;;13.55;4.03;;;;;;;13.22;95.12;98391.34;5042358;28;20344;-90
2021/08/27 00:44:50;;;;;;;16.60;4.15;;;;;;;13.24;94.97;98384.22;5042250;28;20025;-90
2021/08/27 00:47:16;;;;;;;11.73;4.40;;;;;;;13.22;94.62;98388.72;5042250;28;20079;-90
2021/08/27 00:49:41;;;;;;;7.03;3.65;;;;;;;12.98;94.71;98383.25;5043390;28;20044;-90
2021/08/27 00:52:08;;;;;;;7.53;3.85;;;;;;;12.94;95.25;98376.38;5042454;28;20037;-90
2021/08/27 00:54:34;;;;;;;19.10;4.15;;;;;;;13.00;95.45;98386.75;5042929;28;20021;-90
2021/08/27 00:57:00;;;;;;;11.80;4.20;;;;;;;12.97;95.56;98392.13;5043470;28;20259;-90
2021/08/27 00:59:25;;;;;;;8.50;4.10;;;;;;;13.02;95.95;98387.59;5042087;28;20071;-90
2021/08/27 01:01:54;;;;;;;12.88;4.72;;;;;;;13.01;95.80;98383.19;5049391;23;20029;-82
2021/08/27 01:04:19;;;;;;;13.23;4.85;;;;;;;13.00;96.19;98381.47;5042521;28;20030;-83
2021/08/27 01:06:56;;;;;;;19.45;5.55;;;;;;;12.98;96.07;98385.91;5043392;28;20083;-83
2021/08/27 01:09:38;;;;;;;10.18;4.53;;;;;;;12.99;96.22;98389.47;5025887;28;20021;-84
2021/08/27 01:12:12;;;;;;;12.00;4.80;;;;;;;13.01;96.11;98393.75;5043365;28;20021;-83
2021/08/27 01:14:42;;;;;;;12.23;4.65;;;;;;;12.98;96.30;98387.72;5025974;28;20346;-83
2021/08/27 01:17:14;;;;;;;14.00;5.05;;;;;;;13.07;95.98;98390.94;5025536;28;20021;-83
2021/08/27 01:19:52;;;;;;;11.65;4.35;;;;;;;13.07;96.22;98399.78;5025329;28;20320;-83
2021/08/27 01:22:42;;;;;;;14.85;5.03;;;;;;;13.07;95.73;98398.84;5044783;28;20009;-83
2021/08/27 01:25:10;;;;;;;14.75;4.85;;;;;;;13.04;96.13;98398.94;5046680;28;20029;-83
2021/08/27 01:27:37;;;;;;;11.93;4.45;;;;;;;13.00;95.93;98392.06;5046531;28;20043;-83
2021/08/27 01:30:12;;;;;;;12.85;5.70;;;;;;;13.04;96.45;98401.59;5046880;28;20067;-83
2021/08/27 01:32:51;;;;;;;24.70;8.05;;;;;;;13.14;96.62;98396.00;5046580;28;20024;-83
2021/08/27 01:35:17;;;;;;;12.57;5.25;;;;;;;13.11;96.07;98389.06;5028782;28;20017;-83
2021/08/27 01:37:49;;;;;;;20.13;7.20;;;;;;;13.18;95.84;98394.97;5028506;28;20193;-83
2021/08/27 01:40:18;;;;;;;14.68;5.45;;;;;;;13.21;95.97;98397.53;5046377;28;20044;-83
2021/08/27 01:42:45;;;;;;;16.20;5.93;;;;;;;13.17;96.12;98403.84;5046352;28;20076;-83
2021/08/27 01:45:13;;;;;;;12.43;5.57;;;;;;;13.14;96.41;98388.09;5028385;28;20304;-83
2021/08/27 01:47:39;;;;;;;15.18;5.35;;;;;;;13.19;96.52;98383.53;5028592;28;20096;-83
2021/08/27 01:50:06;;;;;;;14.63;6.30;;;;;;;13.20;96.32;98393.16;5046058;28;20087;-83
2021/08/27 01:52:33;;;;;;;8.63;5.05;;;;;;;13.20;96.13;98393.16;5046021;28;20048;-83
2021/08/27 01:55:00;;;;;;;9.23;5.25;;;;;;;13.13;95.78;98402.22;5045964;28;20216;-83
2021/08/27 01:57:27;;;;;;;18.35;7.95;;;;;;;13.07;96.44;98405.06;5045940;28;20303;-83
2021/08/27 01:59:52;;;;;;;13.95;5.38;;;;;;;13.07;96.67;98397.13;5046016;28;20052;-83
2021/08/27 02:02:20;;;;;;;17.67;5.75;;;;;;;13.13;96.24;98407.50;5045601;28;20348;-83
2021/08/27 02:04:53;;;;;;;21.60;6.25;;;;;;;13.07;95.96;98402.41;5046004;28;20017;-83
2021/08/27 02:07:19;;;;;;;21.10;6.72;;;;;;;13.03;96.12;98402.53;5045767;28;20025;-83
2021/08/27 02:09:46;;;;;;;20.92;7.60;;;;;;;13.04;95.96;98398.94;5028164;28;20048;-83
2021/08/27 02:12:12;;;;;;;16.00;7.25;;;;;;;12.97;95.43;98392.13;5045439;28;20021;-83
2021/08/27 02:14:39;;;;;;;18.98;6.88;;;;;;;12.94;95.65;98397.50;5045762;28;20059;-83
2021/08/27 02:17:06;;;;;;;14.93;6.60;;;;;;;12.85;95.67;98397.78;5027918;28;20219;-83
2021/08/27 02:19:33;;;;;;;14.25;5.95;;;;;;;12.76;96.29;98392.78;5027543;28;20280;-83
2021/08/27 02:21:59;;;;;;;27.55;7.20;;;;;;;12.68;95.88;98393.94;5027977;28;20093;-83
2021/08/27 02:24:54;;;;;;;14.90;5.45;;;;;;;12.56;96.94;98395.19;5045864;28;20026;-83
2021/08/27 02:27:21;;;;;;;17.38;6.15;;;;;;;12.51;97.30;98394.50;5014228;28;20052;-84
2021/08/27 02:29:49;;;;;;;16.83;7.03;;;;;;;12.49;97.32;98401.59;5027801;28;20021;-83
2021/08/27 02:32:15;;;;;;;18.45;6.60;;;;;;;12.44;97.30;98394.72;5045035;28;20282;-83
2021/08/27 02:34:44;;;;;;;11.82;6.18;;;;;;;12.36;97.03;98408.16;5027977;28;20021;-83
2021/08/27 02:37:13;;;;;;;20.23;5.90;;;;;;;12.34;97.25;98399.41;5045641;28;20025;-83
2021/08/27 02:39:39;;;;;;;11.88;5.60;;;;;;;12.26;96.65;98396.16;5045547;28;20037;-83
2021/08/27 02:42:05;;;;;;;17.15;6.47;;;;;;;12.17;97.02;98401.69;5027786;28;20013;-83
2021/08/27 02:44:30;;;;;;;11.40;5.30;;;;;;;12.28;97.28;98404.84;5045450;28;20311;-83
2021/08/27 02:46:56;;;;;;;19.98;7.05;;;;;;;12.23;97.06;98411.19;5027763;28;20018;-83
2021/08/27 02:49:21;;;;;;;10.15;6.35;;;;;;;12.25;96.98;98418.16;5027510;28;20017;-83
2021/08/27 02:51:58;;;;;;;16.42;6.50;;;;;;;12.26;97.22;98411.97;5027201;28;20021;-83
2021/08/27 02:54:28;;;;;;;14.50;6.63;;;;;;;12.32;97.11;98408.28;5027476;28;20021;-83
2021/08/27 02:56:55;;;;;;;14.73;6.30;;;;;;;12.24;96.71;98408.50;5045324;28;20032;-83
2021/08/27 02:59:22;;;;;;;16.77;6.90;;;;;;;12.20;96.79;98412.16;5027075;28;20243;-83
2021/08/27 03:01:51;;;;;;;21.90;8.70;;;;;;;12.30;96.81;98418.00;5026886;28;20017;-83
2021/08/27 03:04:37;;;;;;;16.95;8.05;;;;;;;12.37;96.71;98419.59;5044609;28;20021;-83
2021/08/27 03:07:07;;;;;;;19.58;7.65;;;;;;;12.33;96.60;98424.06;5044618;28;20316;-83
2021/08/27 03:10:11;;;;;;;19.77;8.82;;;;;;;12.37;96.55;98419.59;5044629;28;20021;-83
2021/08/27 03:12:47;;;;;;;27.42;7.57;;;;;;;12.35;96.23;98410.84;5040628;28;20037;-83
2021/08/27 03:15:44;;;;;;;14.00;7.53;;;;;;;12.27;95.94;98412.81;5026825;28;20048;-83
2021/08/27 03:18:14;;;;;;;22.45;8.38;;;;;;;12.22;96.20;98405.03;5044513;28;20099;-83
2021/08/27 03:20:54;;;;;;;19.73;7.68;;;;;;;12.18;96.30;98407.84;5044403;28;20026;-83
2021/08/27 03:23:20;;;;;;;17.58;7.40;;;;;;;12.07;95.96;98407.28;5026757;28;20018;-83
2021/08/27 03:25:48;;;;;;;13.68;6.55;;;;;;;12.04;96.52;98405.59;5044412;28;20029;-83
2021/08/27 03:28:26;;;;;;;19.73;7.47;;;;;;;11.95;96.64;98408.50;5044194;28;20051;-83
2021/08/27 03:30:54;;;;;;;16.73;7.53;;;;;;;11.87;96.91;98406.97;5044288;28;20033;-83
2021/08/27 03:33:22;;;;;;;16.88;6.70;;;;;;;11.86;97.20;98411.38;5026536;28;20029;-83
2021/08/27 03:35:50;;;;;;;17.13;7.35;;;;;;;11.77;97.30;98411.63;5026864;28;20339;-83
2021/08/27 03:38:17;;;;;;;13.20;7.65;;;;;;;11.72;96.61;98416.19;5044465;28;20025;-83
2021/08/27 03:40:45;;;;;;;16.42;7.75;;;;;;;11.65;96.76;98421.66;5044461;28;20098;-83
2021/08/27 03:43:13;;;;;;;16.80;7.22;;;;;;;11.52;96.89;98421.06;5026493;28;20308;-83
2021/08/27 03:45:41;;;;;;;18.70;8.82;;;;;;;11.42;96.71;98416.94;5026073;28;20032;-83
2021/08/27 03:48:07;;;;;;;20.83;8.38;;;;;;;11.39;97.12;98411.75;5043925;28;20029;-83
2021/08/27 03:50:33;;;;;;;18.70;8.23;;;;;;;11.31;96.60;98421.66;5043945;28;20036;-83
2021/08/27 03:52:59;;;;;;;16.35;7.95;;;;;;;11.36;97.12;98409.19;5043639;28;20056;-83
2021/08/27 03:55:27;;;;;;;16.98;7.25;;;;;;;11.19;97.42;98416.69;5043983;28;20075;-83
2021/08/27 03:57:55;;;;;;;14.68;7.20;;;;;;;11.18;97.28;98424.63;5043916;28;20025;-83
2021/08/27 04:00:22;;;;;;;17.52;8.60;;;;;;;11.07;97.11;98424.88;5043638;28;20088;-83
2021/08/27 04:02:50;;;;;;;27.52;11.35;;;;;;;11.01;97.09;98425.03;5043513;28;20064;-83
2021/08/27 04:05:18;;;;;;;23.77;10.60;;;;;;;11.00;97.20;98425.94;5042885;28;20045;-83
2021/08/27 04:07:45;;;;;;;20.48;10.30;;;;;;;10.92;97.54;98425.28;5026153;28;20035;-82
2021/08/27 04:10:13;;;;;;;21.63;10.95;;;;;;;10.85;97.13;98427.19;5025859;28;20319;-82
2021/08/27 04:12:40;;;;;;;21.38;9.35;;;;;;;10.75;97.22;98420.41;5025967;28;20068;-82
2021/08/27 04:15:11;;;;;;;21.27;9.07;;;;;;;10.76;97.57;98421.28;5043521;28;20017;-82
2021/08/27 04:17:38;;;;;;;29.55;9.05;;;;;;;10.63;97.83;98425.94;5026028;28;20276;-82
2021/08/27 04:20:06;;;;;;;17.50;9.35;;;;;;;10.65;97.88;98428.53;5043247;28;20022;-85
2021/08/27 04:22:32;;;;;;;22.10;8.70;;;;;;;10.59;97.45;98429.56;5025752;28;20029;-85
2021/08/27 04:24:57;;;;;;;18.02;9.13;;;;;;;10.63;97.64;98430.31;5043514;28;20076;-85
2021/08/27 04:27:23;;;;;;;19.45;9.65;;;;;;;10.60;97.42;98433.06;5023110;28;20028;-86
2021/08/27 04:29:49;;;;;;;18.48;9.82;;;;;;;10.35;96.07;98434.50;5025946;28;20021;-85
2021/08/27 04:32:14;;;;;;;20.67;9.35;;;;;;;10.40;96.34;98432.63;5043373;28;20048;-85
2021/08/27 04:34:40;;;;;;;22.45;9.75;;;;;;;10.34;96.31;98432.75;5025723;28;20029;-85
2021/08/27 04:37:05;;;;;;;23.55;11.25;;;;;;;10.21;95.92;98431.28;5043448;28;20041;-86
2021/08/27 04:39:31;;;;;;;28.35;12.32;;;;;;;10.14;96.05;98440.19;5025739;28;20057;-85
2021/08/27 04:41:56;;;;;;;21.88;12.43;;;;;;;9.98;95.79;98446.63;5017996;28;20063;-86
2021/08/27 04:44:22;;;;;;;25.92;11.50;;;;;;;10.04;96.75;98449.16;5025626;28;20339;-89
2021/08/27 04:46:48;;;;;;;29.00;11.98;;;;;;;10.04;97.63;98451.78;5025959;28;20026;-87
2021/08/27 04:49:13;;;;;;;21.65;10.48;;;;;;;10.08;97.23;98456.09;5026094;28;20021;-87
2021/08/27 04:51:38;;;;;;;21.75;9.90;;;;;;;10.10;96.59;98459.56;5026044;28;20025;-87
2021/08/27 04:54:04;;;;;;;23.95;10.55;;;;;;;10.02;96.14;98467.56;5025902;28;20026;-87
2021/08/27 04:56:29;;;;;;;21.02;10.05;;;;;;;9.96;95.92;98451.03;5028070;28;20032;-87
2021/08/27 04:58:55;;;;;;;22.13;9.40;;;;;;;10.00;95.64;98468.50;5047443;28;20032;-87
2021/08/27 05:01:20;;;;;;;20.92;10.77;;;;;;;9.85;95.50;98461.78;5047413;28;20070;-87
2021/08/27 05:03:46;;;;;;;23.15;10.93;;;;;;;9.90;96.09;98466.97;5026474;28;20268;-87
2021/08/27 05:06:11;;;;;;;21.15;11.60;;;;;;;10.05;96.28;98466.63;5026409;28;20374;-87
2021/08/27 05:08:37;;;;;;;19.08;10.13;;;;;;;10.02;96.09;98471.97;5026320;28;20028;-87
2021/08/27 05:11:03;;;;;;;18.77;9.52;;;;;;;10.01;95.52;98467.59;5027438;28;20017;-87
2021/08/27 05:13:28;;;;;;;21.20;10.15;;;;;;;10.14;95.64;98471.75;5026194;28;20096;-87
2021/08/27 05:15:54;;;;;;;20.70;9.43;;;;;;;10.11;95.26;98472.69;5027406;28;20137;-87
2021/08/27 05:18:19;;;;;;;22.83;10.00;;;;;;;10.02;95.49;98482.47;5026170;28;20341;-87
2021/08/27 05:20:45;;;;;;;16.63;8.68;;;;;;;10.32;94.94;98476.66;5026144;28;20312;-87
2021/08/27 05:23:10;;;;;;;17.77;9.05;;;;;;;10.53;94.81;98491.97;5026069;28;20014;-87
2021/08/27 05:25:35;;;;;;;25.33;9.07;;;;;;;10.45;95.35;98478.97;5025991;28;20198;-87
2021/08/27 05:28:01;;;;;;;16.10;8.55;;;;;;;10.91;94.93;98486.72;5027142;28;20240;-87
2021/08/27 05:30:26;;;;;;;18.27;8.93;;;;;;;11.31;93.03;98495.41;5025915;28;20017;-87
2021/08/27 05:32:52;;;;;;;13.00;7.70;;;;;;;11.83;90.05;98495.84;5026994;28;20096;-87
2021/08/27 05:35:18;;;;;;;21.65;7.05;;;;;;;12.33;88.11;98497.09;5025842;28;20018;-87
2021/08/27 05:37:44;;;;;;;12.90;7.13;;;;;;;12.80;86.96;98494.81;5025815;28;20067;-87
2021/08/27 05:40:10;;;;;;;11.98;5.90;;;;;;;12.95;84.26;98504.88;5025788;28;20060;-87
2021/08/27 05:42:37;;;;;;;14.23;6.75;;;;;;;13.06;83.21;98511.69;5026863;28;20368;-87
2021/08/27 05:45:04;;;;;;;12.63;6.10;;;;;;;13.04;84.40;98523.13;5026813;28;20048;-87
2021/08/27 05:47:30;;;;;;;14.10;6.50;;;;;;;12.99;83.83;98521.56;5025558;28;20018;-87
2021/08/27 05:49:59;;;;;;;18.50;6.93;;;;;;;13.57;83.22;98520.56;5025556;28;20220;-87
2021/08/27 05:52:25;;;;;;;13.40;6.50;;;;;;;13.66;83.15;98522.88;5025408;28;20026;-88
2021/08/27 05:54:51;;;;;;;15.02;6.47;;;;;;;14.56;80.27;98515.25;5025497;28;20380;-88
2021/08/27 05:57:17;;;;;;;13.55;6.38;;;;;;;14.74;80.63;98519.00;5025407;28;20029;-88
2021/08/27 05:59:42;;;;;;;11.02;5.50;;;;;;;15.37;77.68;98521.84;5026504;28;20025;-88
2021/08/27 06:02:08;;;;;;;18.50;5.93;;;;;;;15.57;76.24;98516.63;5027918;28;20049;-88
2021/08/27 06:04:33;;;;;;;13.27;5.30;;;;;;;15.38;77.52;98518.28;5028667;28;20339;-88
2021/08/27 06:06:59;;;;;;;11.80;5.15;;;;;;;16.09;75.55;98521.44;5028113;28;20212;-88
2021/08/27 06:09:24;;;;;;;8.60;4.63;;;;;;;16.41;73.38;98522.69;5028178;28;20244;-88
2021/08/27 06:11:50;;;;;;;8.27;4.32;;;;;;;17.02;71.44;98517.22;5046003;28;20072;-88
2021/08/27 06:14:16;;;;;;;11.02;5.57;;;;;;;17.02;72.52;98522.53;5046084;28;20066;-88
2021/08/27 06:16:41;;;;;;;10.07;5.40;;;;;;;17.55;70.75;98520.00;5028279;28;20025;-88
2021/08/27 06:19:07;;;;;;;13.40;5.07;;;;;;;17.77;70.16;98523.31;5028335;28;20017;-88
2021/08/27 06:21:34;;;;;;;13.50;5.22;;;;;;;18.27;68.00;98513.63;5028250;28;20025;-88
2021/08/27 06:24:00;;;;;;;13.25;5.85;;;;;;;18.45;67.59;98522.50;5028155;28;20024;-88
2021/08/27 06:26:25;;;;;;;8.38;4.65;;;;;;;18.69;66.34;98530.06;5028153;28;20025;-88
2021/08/27 06:28:51;;;;;;;11.05;5.93;;;;;;;18.76;66.42;98533.25;5045739;28;20036;-88
2021/08/27 06:31:16;;;;;;;12.90;5.18;;;;;;;18.93;68.03;98535.88;5028037;28;20021;-88
2021/08/27 06:33:42;;;;;;;11.23;5.93;;;;;;;19.22;67.51;98535.13;5028255;28;20045;-88
2021/08/27 06:36:08;;;;;;;11.77;6.30;;;;;;;19.63;65.24;98525.69;5027988;28;20022;-88
2021/08/27 06:38:33;;;;;;;15.63;6.15;;;;;;;19.96;64.05;98531.75;5027896;28;20021;-88
2021/08/27 06:41:01;;;;;;;22.23;6.85;;;;;;;19.90;63.71;98526.75;5027943;28;20092;-88
2021/08/27 06:43:29;;;;;;;16.70;6.78;;;;;;;19.57;63.92;98538.53;5027848;28;20013;-88
2021/08/27 06:45:55;;;;;;;21.73;6.40;;;;;;;19.36;63.44;98535.25;5045412;28;20025;-88
2021/08/27 06:48:20;;;;;;;16.65;6.15;;;;;;;19.38;63.60;98530.69;5027751;28;20192;-88
2021/08/27 06:50:47;;;;;;;15.45;4.90;;;;;;;20.11;60.42;98528.19;5045357;28;20031;-88
2021/08/27 06:53:12;;;;;;;17.92;5.18;;;;;;;20.51;58.41;98524.88;5027523;28;20070;-88
2021/08/27 06:55:37;;;;;;;18.02;6.38;;;;;;;19.50;63.81;98530.00;5045267;28;20049;-88
2021/08/27 06:58:03;;;;;;;13.90;6.35;;;;;;;20.64;59.17;98531.19;5027487;28;20017;-88
2021/08/27 07:00:29;;;;;;;15.23;5.47;;;;;;;21.35;58.52;98539.25;5045111;28;20080;-88
2021/08/27 07:02:55;;;;;;;16.23;5.90;;;;;;;21.32;59.38;98550.16;5027432;28;20045;-88
2021/08/27 07:05:21;;;;;;;11.23;5.50;;;;;;;22.04;56.98;98548.03;5027411;28;20140;-88
2021/08/27 07:07:47;;;;;;;11.98;5.95;;;;;;;21.11;58.15;98547.84;5027684;28;20028;-88
2021/08/27 07:10:13;;;;;;;13.63;5.30;;;;;;;21.43;55.59;98551.19;5027321;28;20335;-88
2021/08/27 07:12:39;;;;;;;11.68;4.53;;;;;;;21.99;54.42;98553.69;5044849;28;20041;-88
2021/08/27 07:15:06;;;;;;;12.00;5.38;;;;;;;22.68;53.65;98542.72;5027267;28;20017;-88
2021/08/27 07:17:31;;;;;;;16.48;4.88;;;;;;;20.84;56.67;98549.56;5044788;28;20343;-88
2021/08/27 07:19:57;;;;;;;14.98;5.45;;;;;;;19.94;59.96;98549.69;5026138;28;20018;-88
2021/08/27 07:22:23;;;;;;;13.27;5.25;;;;;;;21.44;56.81;98549.34;5027394;28;20013;-88
2021/08/27 07:24:48;;;;;;;13.35;4.72;;;;;;;21.74;55.70;98559.00;5044751;28;20067;-88
2021/08/27 07:27:14;;;;;;;10.30;4.90;;;;;;;20.89;57.80;98549.28;5044926;28;20040;-88
2021/08/27 07:29:39;;;;;;;12.00;5.43;;;;;;;18.79;63.04;98559.75;5044921;28;20330;-88
2021/08/27 07:32:10;;;;;;;14.20;6.40;;;;;;;19.54;63.39;98544.91;5026925;28;20063;-88
2021/08/27 07:34:36;;;;;;;17.48;5.25;;;;;;;21.67;55.66;98546.06;5027310;28;20028;-88
2021/08/27 07:37:02;;;;;;;12.75;6.15;;;;;;;21.51;56.39;98561.41;5026788;28;20034;-88
2021/08/27 07:39:27;;;;;;;17.38;5.07;;;;;;;21.71;57.64;98567.19;5044446;28;20346;-88
2021/08/27 07:41:53;;;;;;;13.10;5.00;;;;;;;20.87;58.59;98556.53;5026776;28;20025;-88
2021/08/27 07:44:18;;;;;;;17.20;5.32;;;;;;;20.84;59.87;98554.91;5027130;28;20060;-88
2021/08/27 07:46:43;;;;;;;10.90;5.68;;;;;;;21.85;56.61;98563.63;5026759;28;20060;-88
2021/08/27 07:49:09;;;;;;;13.20;5.43;;;;;;;22.41;56.26;98555.34;5044326;28;20033;-88
2021/08/27 07:51:34;;;;;;;11.40;5.13;;;;;;;21.56;57.38;98569.97;5044070;28;20029;-88
2021/08/27 07:53:59;;;;;;;15.27;5.03;;;;;;;21.84;56.28;98559.22;5026511;28;20029;-88
2021/08/27 07:56:25;;;;;;;15.68;5.35;;;;;;;20.74;58.60;98559.09;5026540;28;20037;-88
2021/08/27 07:58:50;;;;;;;11.70;4.90;;;;;;;20.98;59.29;98559.44;5044122;28;20216;-88
2021/08/27 08:01:16;;;;;;;18.38;5.20;;;;;;;21.19;58.17;98563.44;5026511;28;20029;-88
2021/08/27 08:03:41;;;;;;;10.05;4.82;;;;;;;22.39;56.62;98576.03;5043864;28;20056;-88
2021/08/27 08:06:07;;;;;;;13.32;5.18;;;;;;;22.51;55.38;98561.81;5026443;28;20028;-88
2021/08/27 08:08:32;;;;;;;12.13;3.70;;;;;;;21.73;55.10;98572.44;5026368;28;20029;-88
2021/08/27 08:10:58;;;;;;;13.77;4.82;;;;;;;22.37;55.23;98569.94;5026760;28;20067;-88
2021/08/27 08:13:23;;;;;;;12.38;4.25;;;;;;;22.26;52.84;98583.19;5043869;28;20084;-88
2021/08/27 08:15:48;;;;;;;11.65;4.05;;;;;;;21.95;53.63;98579.00;5026702;28;20050;-88
2021/08/27 08:18:14;;;;;;;11.68;4.35;;;;;;;22.45;54.23;98578.28;5026589;28;20033;-88
2021/08/27 08:20:39;;;;;;;12.73;3.75;;;;;;;22.96;50.73;98572.06;5043910;28;20086;-88
2021/08/27 08:23:05;;;;;;;9.02;3.58;;;;;;;24.00;49.31;98570.72;5026290;28;20216;-88
2021/08/27 08:25:30;;;;;;;16.55;4.00;;;;;;;24.10;46.73;98581.63;5026257;28;20021;-88
2021/08/27 08:27:56;;;;;;;9.65;3.20;;;;;;;24.79;46.26;98571.78;5026242;28;20025;-88
2021/08/27 08:30:21;;;;;;;13.10;4.18;;;;;;;23.06;52.25;98576.66;5044110;28;20045;-88
2021/08/27 08:32:47;;;;;;;9.82;4.03;;;;;;;22.80;51.37;98576.78;5030256;28;20022;-88
2021/08/27 08:35:12;;;;;;;12.77;4.63;;;;;;;21.52;52.12;98579.19;5030161;28;20021;-88
2021/08/27 08:37:41;;;;;;;10.68;4.07;;;;;;;20.84;55.50;98576.31;5030245;28;20025;-88
2021/08/27 08:40:09;;;;;;;14.63;3.92;;;;;;;22.50;51.40;98570.84;5030122;28;20053;-88
2021/08/27 08:42:36;;;;;;;13.73;3.92;;;;;;;23.43;52.81;98580.31;5030103;28;20017;-88
2021/08/27 08:45:03;;;;;;;11.95;4.03;;;;;;;22.88;52.51;98583.31;5047713;28;20308;-88
2021/08/27 08:47:29;;;;;;;14.05;4.00;;;;;;;21.18;55.15;98575.97;5047660;28;20063;-88
2021/08/27 08:49:55;;;;;;;10.00;3.85;;;;;;;22.92;50.85;98573.25;5029980;28;20021;-88
2021/08/27 08:52:25;;;;;;;12.65;4.53;;;;;;;23.48;50.35;98572.81;5029859;28;20143;-88
2021/08/27 08:54:51;;;;;;;11.00;3.85;;;;;;;24.23;49.75;98567.16;5029903;28;20028;-88
2021/08/27 08:57:19;;;;;;;12.60;4.55;;;;;;;24.03;48.57;98580.38;5029875;28;20025;-88
2021/08/27 08:59:45;;;;;;;9.98;4.05;;;;;;;24.12;48.92;98579.69;5029845;28;20377;-88
2021/08/27 09:02:11;;;;;;;15.65;4.28;;;;;;;23.68;49.18;98572.19;5029537;28;20104;-88
2021/08/27 09:04:36;;;;;;;15.00;5.30;;;;;;;22.20;53.59;98583.59;5047375;28;20048;-88
2021/08/27 09:07:02;;;;;;;11.27;3.85;;;;;;;21.86;53.97;98581.44;5047316;28;20350;-88
2021/08/27 09:09:36;;;;;;;8.50;3.55;;;;;;;21.91;52.36;98588.22;5029627;28;20056;-88
2021/08/27 09:12:20;;;;;;;9.13;3.67;;;;;;;22.63;50.64;98580.63;5029530;28;20025;-88
2021/08/27 09:15:10;;;;;;;14.73;4.40;;;;;;;21.36;51.82;98589.16;5029464;28;20029;-88
2021/08/27 09:17:41;;;;;;;15.10;4.20;;;;;;;20.82;54.10;98583.56;5029454;28;20021;-88
2021/08/27 09:20:09;;;;;;;10.38;3.75;;;;;;;21.30;55.00;98580.53;5047091;28;20025;-88
2021/08/27 09:22:54;;;;;;;11.90;4.05;;;;;;;21.07;54.25;98583.81;5029353;28;20319;-88
2021/08/27 09:25:22;;;;;;;11.18;4.18;;;;;;;22.95;49.23;98573.03;5046988;28;20059;-88
2021/08/27 09:28:10;;;;;;;13.18;3.83;;;;;;;24.39;45.67;98573.09;5029280;28;20088;-88
2021/08/27 09:30:47;;;;;;;10.65;3.55;;;;;;;24.92;44.67;98572.56;5046835;28;20033;-88
2021/08/27 09:33:21;;;;;;;10.27;3.78;;;;;;;25.06;43.97;98569.63;5029086;28;20100;-88
2021/08/27 09:36:01;;;;;;;9.38;4.30;;;;;;;23.08;49.64;98579.25;5029195;28;20101;-89
2021/08/27 09:38:30;;;;;;;12.95;4.18;;;;;;;21.88;51.75;98576.81;5029369;28;20021;-88
2021/08/27 09:41:00;;;;;;;9.02;3.85;;;;;;;23.22;49.14;98571.94;5028991;28;20043;-88
2021/08/27 09:43:26;;;;;;;10.35;4.40;;;;;;;24.07;49.53;98576.50;5045473;28;20080;-88
2021/08/27 09:45:52;;;;;;;8.10;3.67;;;;;;;24.96;45.75;98574.03;5029016;28;20216;-88
2021/08/27 09:48:17;;;;;;;10.05;3.50;;;;;;;23.97;47.24;98581.69;5028848;28;20366;-88
2021/08/27 09:50:45;;;;;;;6.25;3.50;;;;;;;23.12;48.21;98581.63;5046483;28;20026;-88
2021/08/27 09:53:12;;;;;;;10.00;4.32;;;;;;;22.23;49.67;98572.66;5046338;28;20025;-88
2021/08/27 09:55:55;;;;;;;7.45;3.97;;;;;;;21.54;51.25;98583.47;5046435;28;20025;-88
2021/08/27 09:58:21;;;;;;;10.85;4.45;;;;;;;20.79;53.48;98574.88;5028745;28;20029;-88
2021/08/27 10:01:00;;;;;;;12.32;4.85;;;;;;;20.06;58.18;98585.53;5028663;28;20017;-88
2021/08/27 10:03:26;;;;;;;14.73;4.50;;;;;;;19.92;58.29;98580.97;5025125;28;20121;-88
2021/08/27 10:05:56;;;;;;;15.50;4.82;;;;;;;19.88;58.11;98575.88;5026464;28;20022;-88
2021/08/27 10:08:24;;;;;;;21.42;5.03;;;;;;;19.53;59.52;98575.22;5025321;28;20013;-88
2021/08/27 10:10:54;;;;;;;8.77;4.22;;;;;;;19.49;59.40;98573.66;5025181;28;20029;-88
2021/08/27 10:13:21;;;;;;;9.98;4.70;;;;;;;19.42;60.50;98582.97;5025132;28;20022;-88
2021/08/27 10:15:47;;;;;;;7.85;3.95;;;;;;;19.36;61.79;98577.97;5025113;28;20032;-88
2021/08/27 10:18:13;;;;;;;11.27;3.97;;;;;;;19.34;58.81;98574.53;5025050;28;20021;-88
2021/08/27 10:20:44;;;;;;;11.10;4.00;;;;;;;19.69;57.92;98576.09;5024870;28;20217;-88
2021/08/27 10:23:13;;;;;;;11.30;4.15;;;;;;;19.86;58.02;98567.97;5024464;28;20099;-88
2021/08/27 10:25:40;;;;;;;14.45;4.20;;;;;;;20.52;58.56;98564.03;5025586;28;20026;-88
2021/08/27 10:28:10;;;;;;;12.98;4.15;;;;;;;21.49;55.08;98568.66;5024652;28;20026;-88
2021/08/27 10:30:47;;;;;;;10.25;3.53;;;;;;;21.01;55.18;98562.75;5024319;28;20025;-88
2021/08/27 10:33:14;;;;;;;13.10;4.05;;;;;;;20.62;55.58;98559.84;5025747;28;20076;-85
2021/08/27 10:35:39;;;;;;;8.45;3.60;;;;;;;20.54;55.63;98556.75;5024541;28;20084;-82
2021/08/27 10:38:05;;;;;;;8.13;3.70;;;;;;;21.15;55.13;98554.75;5025487;28;20316;-82
2021/08/27 10:40:40;;;;;;;6.60;3.83;;;;;;;21.13;55.20;98556.66;5024472;28;20325;-82
2021/08/27 10:43:06;;;;;;;14.63;3.65;;;;;;;20.45;55.63;98562.69;5025324;28;20018;-86
2021/08/27 10:45:32;;;;;;;9.57;3.40;;;;;;;20.28;57.11;98564.66;5008052;28;20025;-86
2021/08/27 10:48:18;;;;;;;10.60;3.85;;;;;;;20.61;56.50;98552.78;5024017;28;20053;-86
2021/08/27 10:50:49;;;;;;;10.27;3.83;;;;;;;20.95;53.34;98563.16;5025206;28;20036;-86
2021/08/27 10:53:54;;;;;;;6.72;3.17;;;;;;;20.48;56.91;98559.84;5023703;28;20040;-86
2021/08/27 10:56:50;;;;;;;12.52;4.18;;;;;;;19.84;58.24;98564.50;4964708;29;20027;-86
2021/08/27 10:59:17;;;;;;;9.02;4.13;;;;;;;19.84;59.03;98574.34;4963218;28;20023;-87
2021/08/27 11:01:45;;;;;;;10.68;4.50;;;;;;;19.47;59.33;98570.22;4950530;28;20031;-85
2021/08/27 11:04:23;;;;;;;12.38;4.40;;;;;;;18.86;60.80;98563.84;4956756;29;20036;-83
2021/08/27 11:07:03;;;;;;;7.85;3.95;;;;;;;18.89;62.27;98567.16;4933873;29;20023;-83
2021/08/27 11:09:33;;;;;;;8.23;3.80;;;;;;;19.24;61.43;98573.28;4965112;29;20286;-83
2021/08/27 11:12:11;;;;;;;8.60;3.90;;;;;;;19.17;60.29;98566.53;4965015;29;20043;-83
2021/08/27 11:14:38;;;;;;;8.57;3.85;;;;;;;19.47;59.13;98572.91;4965163;29;20093;-83
2021/08/27 11:17:06;;;;;;;11.98;3.25;;;;;;;19.58;57.45;98565.13;4964996;29;20039;-83
2021/08/27 11:19:33;;;;;;;4.97;3.13;;;;;;;19.52;58.55;98562.81;4965009;29;20026;-83
2021/08/27 11:22:10;;;;;;;7.65;3.25;;;;;;;19.20;59.58;98567.25;4964792;29;20334;-83
2021/08/27 11:24:37;;;;;;;8.68;3.30;;;;;;;19.67;58.14;98561.94;4964812;29;20199;-83
2021/08/27 11:27:05;;;;;;;8.35;3.42;;;;;;;19.65;58.96;98558.50;4964767;29;20102;-83
2021/08/27 11:29:41;;;;;;;9.60;3.50;;;;;;;19.83;58.81;98573.47;4977751;28;20040;-83
2021/08/27 11:32:10;;;;;;;5.43;2.80;;;;;;;19.72;58.78;98559.03;5024820;28;20224;-83